sensor_id;sensor_type;location;lat;lon;timestamp;temperature;humidity
10171;DHT22;5127;50.922;6.988;2024-02-21T00:01:14;13.10;76.10
10171;DHT22;5127;50.922;6.988;2024-02-21T00:03:42;13.10;75.80
10171;DHT22;5127;50.922;6.988;2024-02-21T00:06:09;13.10;76.40
10171;DHT22;5127;50.922;6.988;2024-02-21T00:08:38;13.10;76.80
10171;DHT22;5127;50.922;6.988;2024-02-21T00:11:05;13.10;76.00
10171;DHT22;5127;50.922;6.988;2024-02-21T00:13:32;13.10;76.40
10171;DHT22;5127;50.922;6.988;2024-02-21T00:16:00;13.10;76.30
10171;DHT22;5127;50.922;6.988;2024-02-21T00:18:27;13.10;76.30
10171;DHT22;5127;50.922;6.988;2024-02-21T00:20:55;13.10;76.30
10171;DHT22;5127;50.922;6.988;2024-02-21T00:23:22;13.20;76.40
10171;DHT22;5127;50.922;6.988;2024-02-21T00:25:51;13.10;76.30
10171;DHT22;5127;50.922;6.988;2024-02-21T00:28:18;13.20;76.20
10171;DHT22;5127;50.922;6.988;2024-02-21T00:30:46;13.20;76.40
10171;DHT22;5127;50.922;6.988;2024-02-21T00:33:14;13.20;76.30
10171;DHT22;5127;50.922;6.988;2024-02-21T00:35:41;13.10;76.20
10171;DHT22;5127;50.922;6.988;2024-02-21T00:38:09;13.10;76.40
10171;DHT22;5127;50.922;6.988;2024-02-21T00:40:36;13.10;76.30
10171;DHT22;5127;50.922;6.988;2024-02-21T00:43:05;13.30;76.60
10171;DHT22;5127;50.922;6.988;2024-02-21T00:45:32;13.10;76.20
10171;DHT22;5127;50.922;6.988;2024-02-21T00:47:59;13.10;76.40
10171;DHT22;5127;50.922;6.988;2024-02-21T00:50:26;13.20;76.50
10171;DHT22;5127;50.922;6.988;2024-02-21T00:52:54;13.20;76.50
10171;DHT22;5127;50.922;6.988;2024-02-21T00:55:21;13.20;76.30
10171;DHT22;5127;50.922;6.988;2024-02-21T00:57:48;13.20;76.40
10171;DHT22;5127;50.922;6.988;2024-02-21T01:00:18;13.10;76.30
10171;DHT22;5127;50.922;6.988;2024-02-21T01:02:45;13.10;76.10
10171;DHT22;5127;50.922;6.988;2024-02-21T01:05:12;13.10;76.40
10171;DHT22;5127;50.922;6.988;2024-02-21T01:07:40;13.10;76.40
10171;DHT22;5127;50.922;6.988;2024-02-21T01:10:08;13.10;76.40
10171;DHT22;5127;50.922;6.988;2024-02-21T01:12:35;13.10;76.30
10171;DHT22;5127;50.922;6.988;2024-02-21T01:15:03;13.20;76.40
10171;DHT22;5127;50.922;6.988;2024-02-21T01:17:32;13.10;76.30
10171;DHT22;5127;50.922;6.988;2024-02-21T01:19:59;13.10;76.10
10171;DHT22;5127;50.922;6.988;2024-02-21T01:22:26;13.10;76.40
10171;DHT22;5127;50.922;6.988;2024-02-21T01:24:54;13.00;76.60
10171;DHT22;5127;50.922;6.988;2024-02-21T01:27:21;13.10;76.70
10171;DHT22;5127;50.922;6.988;2024-02-21T01:29:49;13.00;76.60
10171;DHT22;5127;50.922;6.988;2024-02-21T01:32:16;13.10;76.70
10171;DHT22;5127;50.922;6.988;2024-02-21T01:34:44;13.00;76.60
10171;DHT22;5127;50.922;6.988;2024-02-21T01:37:12;13.10;76.60
10171;DHT22;5127;50.922;6.988;2024-02-21T01:39:39;13.00;76.80
10171;DHT22;5127;50.922;6.988;2024-02-21T01:42:06;13.10;76.80
10171;DHT22;5127;50.922;6.988;2024-02-21T01:44:34;13.10;76.90
10171;DHT22;5127;50.922;6.988;2024-02-21T01:47:02;13.00;76.60
10171;DHT22;5127;50.922;6.988;2024-02-21T01:49:30;13.10;76.70
10171;DHT22;5127;50.922;6.988;2024-02-21T01:51:58;13.10;76.80
10171;DHT22;5127;50.922;6.988;2024-02-21T01:54:25;13.10;76.50
10171;DHT22;5127;50.922;6.988;2024-02-21T01:56:54;13.10;76.70
10171;DHT22;5127;50.922;6.988;2024-02-21T01:59:22;13.10;76.80
10171;DHT22;5127;50.922;6.988;2024-02-21T02:01:50;13.10;76.80
10171;DHT22;5127;50.922;6.988;2024-02-21T02:04:19;13.10;77.00
10171;DHT22;5127;50.922;6.988;2024-02-21T02:06:47;13.10;77.00
10171;DHT22;5127;50.922;6.988;2024-02-21T02:09:16;13.10;77.00
10171;DHT22;5127;50.922;6.988;2024-02-21T02:11:43;13.10;76.70
10171;DHT22;5127;50.922;6.988;2024-02-21T02:14:10;13.10;76.70
10171;DHT22;5127;50.922;6.988;2024-02-21T02:16:38;13.10;76.70
10171;DHT22;5127;50.922;6.988;2024-02-21T02:19:05;13.10;76.70
10171;DHT22;5127;50.922;6.988;2024-02-21T02:21:34;13.10;76.60
10171;DHT22;5127;50.922;6.988;2024-02-21T02:24:06;13.10;76.50
10171;DHT22;5127;50.922;6.988;2024-02-21T02:26:34;13.10;76.60
10171;DHT22;5127;50.922;6.988;2024-02-21T02:29:01;13.10;76.70
10171;DHT22;5127;50.922;6.988;2024-02-21T02:31:29;13.10;76.60
10171;DHT22;5127;50.922;6.988;2024-02-21T02:33:56;13.00;76.40
10171;DHT22;5127;50.922;6.988;2024-02-21T02:36:23;13.00;76.50
10171;DHT22;5127;50.922;6.988;2024-02-21T02:38:51;13.00;76.50
10171;DHT22;5127;50.922;6.988;2024-02-21T02:41:19;12.90;76.30
10171;DHT22;5127;50.922;6.988;2024-02-21T02:43:46;12.90;76.20
10171;DHT22;5127;50.922;6.988;2024-02-21T02:46:13;12.90;76.50
10171;DHT22;5127;50.922;6.988;2024-02-21T02:48:41;12.90;76.70
10171;DHT22;5127;50.922;6.988;2024-02-21T02:51:08;12.90;76.60
10171;DHT22;5127;50.922;6.988;2024-02-21T02:53:35;12.90;76.60
10171;DHT22;5127;50.922;6.988;2024-02-21T02:56:03;12.80;76.60
10171;DHT22;5127;50.922;6.988;2024-02-21T02:58:31;12.80;76.60
10171;DHT22;5127;50.922;6.988;2024-02-21T03:01:01;12.80;76.50
10171;DHT22;5127;50.922;6.988;2024-02-21T03:03:28;12.80;76.70
10171;DHT22;5127;50.922;6.988;2024-02-21T03:05:56;12.80;76.70
10171;DHT22;5127;50.922;6.988;2024-02-21T03:08:23;12.80;76.60
10171;DHT22;5127;50.922;6.988;2024-02-21T03:10:50;12.80;76.70
10171;DHT22;5127;50.922;6.988;2024-02-21T03:13:17;12.80;76.80
10171;DHT22;5127;50.922;6.988;2024-02-21T03:15:46;12.80;76.90
10171;DHT22;5127;50.922;6.988;2024-02-21T03:18:13;12.70;76.60
10171;DHT22;5127;50.922;6.988;2024-02-21T03:20:41;12.80;77.00
10171;DHT22;5127;50.922;6.988;2024-02-21T03:23:08;12.80;77.00
10171;DHT22;5127;50.922;6.988;2024-02-21T03:25:35;12.80;77.00
10171;DHT22;5127;50.922;6.988;2024-02-21T03:28:03;12.80;76.90
10171;DHT22;5127;50.922;6.988;2024-02-21T03:30:30;12.80;76.90
10171;DHT22;5127;50.922;6.988;2024-02-21T03:32:59;12.70;76.90
10171;DHT22;5127;50.922;6.988;2024-02-21T03:35:27;12.80;76.80
10171;DHT22;5127;50.922;6.988;2024-02-21T03:37:54;12.80;76.90
10171;DHT22;5127;50.922;6.988;2024-02-21T03:40:21;12.80;76.90
10171;DHT22;5127;50.922;6.988;2024-02-21T03:42:48;12.80;76.90
10171;DHT22;5127;50.922;6.988;2024-02-21T03:45:16;12.80;77.00
10171;DHT22;5127;50.922;6.988;2024-02-21T03:47:43;12.80;77.00
10171;DHT22;5127;50.922;6.988;2024-02-21T03:50:12;12.80;77.10
10171;DHT22;5127;50.922;6.988;2024-02-21T03:52:39;12.80;76.80
10171;DHT22;5127;50.922;6.988;2024-02-21T03:55:07;12.80;76.90
10171;DHT22;5127;50.922;6.988;2024-02-21T03:57:35;12.70;76.80
10171;DHT22;5127;50.922;6.988;2024-02-21T04:00:02;12.70;76.80
10171;DHT22;5127;50.922;6.988;2024-02-21T04:02:33;12.80;76.80
10171;DHT22;5127;50.922;6.988;2024-02-21T04:05:00;12.80;76.80
10171;DHT22;5127;50.922;6.988;2024-02-21T04:07:29;12.80;76.80
10171;DHT22;5127;50.922;6.988;2024-02-21T04:09:56;12.80;76.70
10171;DHT22;5127;50.922;6.988;2024-02-21T04:12:24;12.70;76.70
10171;DHT22;5127;50.922;6.988;2024-02-21T04:14:51;12.80;76.80
10171;DHT22;5127;50.922;6.988;2024-02-21T04:17:18;12.80;76.80
10171;DHT22;5127;50.922;6.988;2024-02-21T04:19:44;12.80;76.70
10171;DHT22;5127;50.922;6.988;2024-02-21T04:22:12;12.70;76.50
10171;DHT22;5127;50.922;6.988;2024-02-21T04:24:40;12.70;76.50
10171;DHT22;5127;50.922;6.988;2024-02-21T04:27:07;12.70;76.10
10171;DHT22;5127;50.922;6.988;2024-02-21T04:29:34;12.70;76.50
10171;DHT22;5127;50.922;6.988;2024-02-21T04:32:02;12.70;76.40
10171;DHT22;5127;50.922;6.988;2024-02-21T04:34:29;12.60;76.30
10171;DHT22;5127;50.922;6.988;2024-02-21T04:36:57;12.60;76.40
10171;DHT22;5127;50.922;6.988;2024-02-21T04:39:24;12.60;76.50
10171;DHT22;5127;50.922;6.988;2024-02-21T04:41:53;12.60;76.60
10171;DHT22;5127;50.922;6.988;2024-02-21T04:44:20;12.60;76.40
10171;DHT22;5127;50.922;6.988;2024-02-21T04:46:48;12.50;76.60
10171;DHT22;5127;50.922;6.988;2024-02-21T04:49:15;12.50;76.40
10171;DHT22;5127;50.922;6.988;2024-02-21T04:51:42;12.50;76.40
10171;DHT22;5127;50.922;6.988;2024-02-21T04:54:10;12.50;76.50
10171;DHT22;5127;50.922;6.988;2024-02-21T04:56:37;12.60;76.80
10171;DHT22;5127;50.922;6.988;2024-02-21T04:59:05;12.50;76.60
10171;DHT22;5127;50.922;6.988;2024-02-21T05:01:33;12.50;76.50
10171;DHT22;5127;50.922;6.988;2024-02-21T05:04:00;12.50;76.80
10171;DHT22;5127;50.922;6.988;2024-02-21T05:06:28;12.50;76.80
10171;DHT22;5127;50.922;6.988;2024-02-21T05:08:55;12.50;76.60
10171;DHT22;5127;50.922;6.988;2024-02-21T05:11:24;12.50;76.70
10171;DHT22;5127;50.922;6.988;2024-02-21T05:13:51;12.50;76.80
10171;DHT22;5127;50.922;6.988;2024-02-21T05:16:20;12.50;76.70
10171;DHT22;5127;50.922;6.988;2024-02-21T05:18:47;12.60;76.70
10171;DHT22;5127;50.922;6.988;2024-02-21T05:21:14;12.50;76.70
10171;DHT22;5127;50.922;6.988;2024-02-21T05:23:41;12.50;76.70
10171;DHT22;5127;50.922;6.988;2024-02-21T05:26:09;12.60;76.90
10171;DHT22;5127;50.922;6.988;2024-02-21T05:28:36;12.50;76.80
10171;DHT22;5127;50.922;6.988;2024-02-21T05:31:03;12.50;76.80
10171;DHT22;5127;50.922;6.988;2024-02-21T05:33:32;12.50;76.80
10171;DHT22;5127;50.922;6.988;2024-02-21T05:35:59;12.60;76.70
10171;DHT22;5127;50.922;6.988;2024-02-21T05:38:26;12.50;76.80
10171;DHT22;5127;50.922;6.988;2024-02-21T05:40:54;12.60;76.90
10171;DHT22;5127;50.922;6.988;2024-02-21T05:43:21;12.60;76.90
10171;DHT22;5127;50.922;6.988;2024-02-21T05:45:48;12.60;76.90
10171;DHT22;5127;50.922;6.988;2024-02-21T05:48:15;12.50;76.70
10171;DHT22;5127;50.922;6.988;2024-02-21T05:50:44;12.60;76.90
10171;DHT22;5127;50.922;6.988;2024-02-21T05:53:11;12.60;76.70
10171;DHT22;5127;50.922;6.988;2024-02-21T05:55:39;12.60;77.00
10171;DHT22;5127;50.922;6.988;2024-02-21T05:58:06;12.60;76.90
10171;DHT22;5127;50.922;6.988;2024-02-21T06:00:33;12.60;76.90
10171;DHT22;5127;50.922;6.988;2024-02-21T06:03:00;12.60;76.90
10171;DHT22;5127;50.922;6.988;2024-02-21T06:05:28;12.60;76.90
10171;DHT22;5127;50.922;6.988;2024-02-21T06:07:56;12.60;76.90
10171;DHT22;5127;50.922;6.988;2024-02-21T06:10:23;12.60;76.80
10171;DHT22;5127;50.922;6.988;2024-02-21T06:12:51;12.60;76.90
10171;DHT22;5127;50.922;6.988;2024-02-21T06:15:18;12.60;76.90
10171;DHT22;5127;50.922;6.988;2024-02-21T06:17:45;12.60;76.90
10171;DHT22;5127;50.922;6.988;2024-02-21T06:20:13;12.60;76.90
10171;DHT22;5127;50.922;6.988;2024-02-21T06:22:40;12.60;76.90
10171;DHT22;5127;50.922;6.988;2024-02-21T06:25:09;12.60;77.00
10171;DHT22;5127;50.922;6.988;2024-02-21T06:27:36;12.60;76.90
10171;DHT22;5127;50.922;6.988;2024-02-21T06:30:04;12.60;77.00
10171;DHT22;5127;50.922;6.988;2024-02-21T06:32:31;12.60;76.90
10171;DHT22;5127;50.922;6.988;2024-02-21T06:34:58;12.60;77.70
10171;DHT22;5127;50.922;6.988;2024-02-21T06:37:27;12.60;77.10
10171;DHT22;5127;50.922;6.988;2024-02-21T06:39:54;12.70;77.10
10171;DHT22;5127;50.922;6.988;2024-02-21T06:42:24;12.70;77.80
10171;DHT22;5127;50.922;6.988;2024-02-21T06:44:52;12.70;76.80
10171;DHT22;5127;50.922;6.988;2024-02-21T06:47:19;12.70;77.00
10171;DHT22;5127;50.922;6.988;2024-02-21T06:49:48;12.70;77.00
10171;DHT22;5127;50.922;6.988;2024-02-21T06:52:17;12.70;76.60
10171;DHT22;5127;50.922;6.988;2024-02-21T06:54:46;12.70;76.80
10171;DHT22;5127;50.922;6.988;2024-02-21T06:57:13;12.70;76.90
10171;DHT22;5127;50.922;6.988;2024-02-21T06:59:42;12.70;76.90
10171;DHT22;5127;50.922;6.988;2024-02-21T07:02:10;12.70;76.70
10171;DHT22;5127;50.922;6.988;2024-02-21T07:04:37;12.70;76.90
10171;DHT22;5127;50.922;6.988;2024-02-21T07:07:04;12.70;76.90
10171;DHT22;5127;50.922;6.988;2024-02-21T07:09:32;12.70;76.90
10171;DHT22;5127;50.922;6.988;2024-02-21T07:11:59;12.80;76.90
10171;DHT22;5127;50.922;6.988;2024-02-21T07:14:28;12.80;77.00
10171;DHT22;5127;50.922;6.988;2024-02-21T07:16:56;12.70;76.70
10171;DHT22;5127;50.922;6.988;2024-02-21T07:19:24;12.70;76.70
10171;DHT22;5127;50.922;6.988;2024-02-21T07:21:51;12.80;76.90
10171;DHT22;5127;50.922;6.988;2024-02-21T07:24:19;12.80;76.90
10171;DHT22;5127;50.922;6.988;2024-02-21T07:26:46;12.80;76.70
10171;DHT22;5127;50.922;6.988;2024-02-21T07:29:14;12.80;76.70
10171;DHT22;5127;50.922;6.988;2024-02-21T07:31:41;12.80;76.70
10171;DHT22;5127;50.922;6.988;2024-02-21T07:34:10;12.80;76.70
10171;DHT22;5127;50.922;6.988;2024-02-21T07:36:37;12.80;76.60
10171;DHT22;5127;50.922;6.988;2024-02-21T07:39:05;12.80;76.90
10171;DHT22;5127;50.922;6.988;2024-02-21T07:41:32;12.80;77.30
10171;DHT22;5127;50.922;6.988;2024-02-21T07:44:00;12.80;77.40
10171;DHT22;5127;50.922;6.988;2024-02-21T07:46:29;12.80;77.30
10171;DHT22;5127;50.922;6.988;2024-02-21T07:48:56;12.90;77.40
10171;DHT22;5127;50.922;6.988;2024-02-21T07:51:28;12.90;77.40
10171;DHT22;5127;50.922;6.988;2024-02-21T07:53:56;12.90;76.60
10171;DHT22;5127;50.922;6.988;2024-02-21T07:56:23;12.90;77.00
10171;DHT22;5127;50.922;6.988;2024-02-21T07:58:50;12.90;76.80
10171;DHT22;5127;50.922;6.988;2024-02-21T08:01:18;12.90;76.70
10171;DHT22;5127;50.922;6.988;2024-02-21T08:03:46;12.90;76.60
10171;DHT22;5127;50.922;6.988;2024-02-21T08:06:14;12.90;76.60
10171;DHT22;5127;50.922;6.988;2024-02-21T08:08:43;12.90;76.50
10171;DHT22;5127;50.922;6.988;2024-02-21T08:11:10;12.90;76.20
10171;DHT22;5127;50.922;6.988;2024-02-21T08:13:37;12.90;76.50
10171;DHT22;5127;50.922;6.988;2024-02-21T08:16:04;12.80;76.40
10171;DHT22;5127;50.922;6.988;2024-02-21T08:18:32;12.90;76.50
10171;DHT22;5127;50.922;6.988;2024-02-21T08:21:03;12.90;76.90
10171;DHT22;5127;50.922;6.988;2024-02-21T08:23:30;12.80;75.90
10171;DHT22;5127;50.922;6.988;2024-02-21T08:25:59;12.80;76.30
10171;DHT22;5127;50.922;6.988;2024-02-21T08:28:26;12.80;75.90
10171;DHT22;5127;50.922;6.988;2024-02-21T08:30:53;12.80;76.10
10171;DHT22;5127;50.922;6.988;2024-02-21T08:33:20;12.80;76.00
10171;DHT22;5127;50.922;6.988;2024-02-21T08:35:51;12.80;76.10
10171;DHT22;5127;50.922;6.988;2024-02-21T08:38:18;12.80;75.80
10171;DHT22;5127;50.922;6.988;2024-02-21T08:40:46;12.80;76.10
10171;DHT22;5127;50.922;6.988;2024-02-21T08:43:14;12.80;75.80
10171;DHT22;5127;50.922;6.988;2024-02-21T08:45:42;12.80;75.50
10171;DHT22;5127;50.922;6.988;2024-02-21T08:48:09;12.90;75.90
10171;DHT22;5127;50.922;6.988;2024-02-21T08:50:36;12.80;75.80
10171;DHT22;5127;50.922;6.988;2024-02-21T08:53:04;12.90;75.80
10171;DHT22;5127;50.922;6.988;2024-02-21T08:55:31;12.90;75.60
10171;DHT22;5127;50.922;6.988;2024-02-21T08:58:00;12.90;75.60
10171;DHT22;5127;50.922;6.988;2024-02-21T09:00:29;13.00;75.30
10171;DHT22;5127;50.922;6.988;2024-02-21T09:02:57;13.00;75.20
10171;DHT22;5127;50.922;6.988;2024-02-21T09:05:24;13.00;75.30
10171;DHT22;5127;50.922;6.988;2024-02-21T09:07:51;13.00;75.40
10171;DHT22;5127;50.922;6.988;2024-02-21T09:10:19;13.00;75.80
10171;DHT22;5127;50.922;6.988;2024-02-21T09:12:46;13.10;76.00
10171;DHT22;5127;50.922;6.988;2024-02-21T09:15:14;13.10;75.80
10171;DHT22;5127;50.922;6.988;2024-02-21T09:17:42;13.20;75.90
10171;DHT22;5127;50.922;6.988;2024-02-21T09:20:10;13.30;75.10
10171;DHT22;5127;50.922;6.988;2024-02-21T09:22:38;13.40;75.60
10171;DHT22;5127;50.922;6.988;2024-02-21T09:25:06;13.50;75.00
10171;DHT22;5127;50.922;6.988;2024-02-21T09:27:34;13.60;75.40
10171;DHT22;5127;50.922;6.988;2024-02-21T09:30:01;13.60;75.70
10171;DHT22;5127;50.922;6.988;2024-02-21T09:32:30;13.60;74.60
10171;DHT22;5127;50.922;6.988;2024-02-21T09:34:59;13.70;74.70
10171;DHT22;5127;50.922;6.988;2024-02-21T09:37:27;13.70;73.70
10171;DHT22;5127;50.922;6.988;2024-02-21T09:39:54;13.70;74.20
10171;DHT22;5127;50.922;6.988;2024-02-21T09:42:21;13.70;74.50
10171;DHT22;5127;50.922;6.988;2024-02-21T09:44:50;13.70;74.20
10171;DHT22;5127;50.922;6.988;2024-02-21T09:47:22;13.70;74.00
10171;DHT22;5127;50.922;6.988;2024-02-21T09:49:49;13.80;74.00
10171;DHT22;5127;50.922;6.988;2024-02-21T09:52:20;13.80;74.20
10171;DHT22;5127;50.922;6.988;2024-02-21T09:54:49;13.80;73.70
10171;DHT22;5127;50.922;6.988;2024-02-21T09:57:18;13.90;74.50
10171;DHT22;5127;50.922;6.988;2024-02-21T09:59:46;13.90;74.60
10171;DHT22;5127;50.922;6.988;2024-02-21T10:02:13;13.90;75.60
10171;DHT22;5127;50.922;6.988;2024-02-21T10:04:41;14.00;74.90
10171;DHT22;5127;50.922;6.988;2024-02-21T10:07:08;14.10;75.20
10171;DHT22;5127;50.922;6.988;2024-02-21T10:09:38;14.10;75.10
10171;DHT22;5127;50.922;6.988;2024-02-21T10:12:10;14.20;74.80
10171;DHT22;5127;50.922;6.988;2024-02-21T10:14:37;14.20;74.40
10171;DHT22;5127;50.922;6.988;2024-02-21T10:17:05;14.30;74.60
10171;DHT22;5127;50.922;6.988;2024-02-21T10:19:35;14.30;74.80
10171;DHT22;5127;50.922;6.988;2024-02-21T10:22:04;14.30;75.00
10171;DHT22;5127;50.922;6.988;2024-02-21T10:24:33;14.40;75.50
10171;DHT22;5127;50.922;6.988;2024-02-21T10:27:06;14.50;74.70
10171;DHT22;5127;50.922;6.988;2024-02-21T10:29:35;14.50;72.80
10171;DHT22;5127;50.922;6.988;2024-02-21T10:32:06;14.50;73.90
10171;DHT22;5127;50.922;6.988;2024-02-21T10:34:34;14.60;72.90
10171;DHT22;5127;50.922;6.988;2024-02-21T10:37:02;14.70;74.30
10171;DHT22;5127;50.922;6.988;2024-02-21T10:39:30;14.70;74.00
10171;DHT22;5127;50.922;6.988;2024-02-21T10:41:59;14.70;74.30
10171;DHT22;5127;50.922;6.988;2024-02-21T10:44:31;14.80;74.30
10171;DHT22;5127;50.922;6.988;2024-02-21T10:46:58;14.80;73.70
10171;DHT22;5127;50.922;6.988;2024-02-21T10:49:26;14.80;74.10
10171;DHT22;5127;50.922;6.988;2024-02-21T10:51:55;14.90;73.90
10171;DHT22;5127;50.922;6.988;2024-02-21T10:54:39;14.90;74.10
10171;DHT22;5127;50.922;6.988;2024-02-21T10:57:08;15.00;72.00
10171;DHT22;5127;50.922;6.988;2024-02-21T10:59:39;15.10;74.00
10171;DHT22;5127;50.922;6.988;2024-02-21T11:02:07;15.10;73.10
10171;DHT22;5127;50.922;6.988;2024-02-21T11:04:34;15.20;73.40
10171;DHT22;5127;50.922;6.988;2024-02-21T11:07:03;15.20;73.30
10171;DHT22;5127;50.922;6.988;2024-02-21T11:09:32;15.20;73.20
10171;DHT22;5127;50.922;6.988;2024-02-21T11:12:02;15.30;73.70
10171;DHT22;5127;50.922;6.988;2024-02-21T11:14:29;15.30;72.70
10171;DHT22;5127;50.922;6.988;2024-02-21T11:17:01;15.40;73.30
10171;DHT22;5127;50.922;6.988;2024-02-21T11:19:29;15.40;72.50
10171;DHT22;5127;50.922;6.988;2024-02-21T11:21:57;15.40;72.20
10171;DHT22;5127;50.922;6.988;2024-02-21T11:24:28;15.40;72.10
10171;DHT22;5127;50.922;6.988;2024-02-21T11:26:56;15.40;72.10
10171;DHT22;5127;50.922;6.988;2024-02-21T11:29:40;15.40;72.40
10171;DHT22;5127;50.922;6.988;2024-02-21T11:32:10;15.40;70.40
10171;DHT22;5127;50.922;6.988;2024-02-21T11:34:38;15.50;71.50
10171;DHT22;5127;50.922;6.988;2024-02-21T11:37:13;15.50;72.40
10171;DHT22;5127;50.922;6.988;2024-02-21T11:39:42;15.40;70.30
10171;DHT22;5127;50.922;6.988;2024-02-21T11:42:09;15.50;71.30
10171;DHT22;5127;50.922;6.988;2024-02-21T11:44:38;15.50;71.60
10171;DHT22;5127;50.922;6.988;2024-02-21T11:47:10;15.50;71.70
10171;DHT22;5127;50.922;6.988;2024-02-21T11:49:38;15.50;71.90
10171;DHT22;5127;50.922;6.988;2024-02-21T11:52:06;15.50;71.80
10171;DHT22;5127;50.922;6.988;2024-02-21T11:54:34;15.50;71.90
10171;DHT22;5127;50.922;6.988;2024-02-21T11:57:01;15.50;71.50
10171;DHT22;5127;50.922;6.988;2024-02-21T11:59:30;15.60;71.70
10171;DHT22;5127;50.922;6.988;2024-02-21T12:02:00;15.60;71.90
10171;DHT22;5127;50.922;6.988;2024-02-21T12:04:30;15.60;71.90
10171;DHT22;5127;50.922;6.988;2024-02-21T12:06:58;15.70;72.00
10171;DHT22;5127;50.922;6.988;2024-02-21T12:09:25;15.70;72.20
10171;DHT22;5127;50.922;6.988;2024-02-21T12:11:59;15.70;71.90
10171;DHT22;5127;50.922;6.988;2024-02-21T12:14:29;15.80;70.60
10171;DHT22;5127;50.922;6.988;2024-02-21T12:16:57;15.80;72.00
10171;DHT22;5127;50.922;6.988;2024-02-21T12:19:24;15.80;72.10
10171;DHT22;5127;50.922;6.988;2024-02-21T12:21:54;15.80;72.30
10171;DHT22;5127;50.922;6.988;2024-02-21T12:24:24;15.90;71.10
10171;DHT22;5127;50.922;6.988;2024-02-21T12:26:52;15.90;71.40
10171;DHT22;5127;50.922;6.988;2024-02-21T12:29:19;15.90;71.70
10171;DHT22;5127;50.922;6.988;2024-02-21T12:31:47;15.90;70.90
10171;DHT22;5127;50.922;6.988;2024-02-21T12:34:15;15.90;70.90
10171;DHT22;5127;50.922;6.988;2024-02-21T12:36:43;15.90;71.40
10171;DHT22;5127;50.922;6.988;2024-02-21T12:39:12;15.90;71.20
10171;DHT22;5127;50.922;6.988;2024-02-21T12:41:41;15.90;70.80
10171;DHT22;5127;50.922;6.988;2024-02-21T12:44:10;15.90;70.70
10171;DHT22;5127;50.922;6.988;2024-02-21T12:46:38;15.90;70.50
10171;DHT22;5127;50.922;6.988;2024-02-21T12:49:07;15.90;70.70
10171;DHT22;5127;50.922;6.988;2024-02-21T12:51:34;15.90;71.00
10171;DHT22;5127;50.922;6.988;2024-02-21T12:54:02;15.90;71.10
10171;DHT22;5127;50.922;6.988;2024-02-21T12:56:31;15.90;71.20
10171;DHT22;5127;50.922;6.988;2024-02-21T12:58:58;15.90;70.20
10171;DHT22;5127;50.922;6.988;2024-02-21T13:01:26;15.90;70.40
10171;DHT22;5127;50.922;6.988;2024-02-21T13:03:54;15.90;69.90
10171;DHT22;5127;50.922;6.988;2024-02-21T13:06:21;15.90;70.00
10171;DHT22;5127;50.922;6.988;2024-02-21T13:08:49;15.90;70.50
10171;DHT22;5127;50.922;6.988;2024-02-21T13:11:17;15.90;70.70
10171;DHT22;5127;50.922;6.988;2024-02-21T13:13:46;15.90;70.90
10171;DHT22;5127;50.922;6.988;2024-02-21T13:16:13;16.00;70.20
10171;DHT22;5127;50.922;6.988;2024-02-21T13:18:40;16.00;70.50
10171;DHT22;5127;50.922;6.988;2024-02-21T13:21:09;16.00;70.00
10171;DHT22;5127;50.922;6.988;2024-02-21T13:23:36;16.00;70.00
10171;DHT22;5127;50.922;6.988;2024-02-21T13:26:03;16.00;70.10
10171;DHT22;5127;50.922;6.988;2024-02-21T13:28:31;16.00;70.20
10171;DHT22;5127;50.922;6.988;2024-02-21T13:31:00;16.10;70.00
10171;DHT22;5127;50.922;6.988;2024-02-21T13:33:27;16.00;70.10
10171;DHT22;5127;50.922;6.988;2024-02-21T13:35:55;16.00;70.30
10171;DHT22;5127;50.922;6.988;2024-02-21T13:38:22;16.00;70.40
10171;DHT22;5127;50.922;6.988;2024-02-21T13:40:50;16.00;70.30
10171;DHT22;5127;50.922;6.988;2024-02-21T13:43:17;16.00;70.30
10171;DHT22;5127;50.922;6.988;2024-02-21T13:45:56;16.10;70.50
10171;DHT22;5127;50.922;6.988;2024-02-21T13:48:24;16.10;68.70
10171;DHT22;5127;50.922;6.988;2024-02-21T13:50:53;16.10;69.60
10171;DHT22;5127;50.922;6.988;2024-02-21T13:53:20;16.10;69.90
10171;DHT22;5127;50.922;6.988;2024-02-21T13:55:48;16.10;69.70
10171;DHT22;5127;50.922;6.988;2024-02-21T13:58:16;16.10;69.20
10171;DHT22;5127;50.922;6.988;2024-02-21T14:00:45;16.10;69.30
10171;DHT22;5127;50.922;6.988;2024-02-21T14:03:12;16.10;69.20
10171;DHT22;5127;50.922;6.988;2024-02-21T14:05:41;16.00;69.40
10171;DHT22;5127;50.922;6.988;2024-02-21T14:08:08;16.00;68.90
10171;DHT22;5127;50.922;6.988;2024-02-21T14:10:35;16.00;69.10
10171;DHT22;5127;50.922;6.988;2024-02-21T14:13:03;16.00;69.00
10171;DHT22;5127;50.922;6.988;2024-02-21T14:15:30;15.90;69.00
10171;DHT22;5127;50.922;6.988;2024-02-21T14:17:58;15.90;69.00
10171;DHT22;5127;50.922;6.988;2024-02-21T14:20:25;15.90;69.10
10171;DHT22;5127;50.922;6.988;2024-02-21T14:22:54;15.90;69.00
10171;DHT22;5127;50.922;6.988;2024-02-21T14:25:21;15.90;68.50
10171;DHT22;5127;50.922;6.988;2024-02-21T14:27:48;15.90;69.20
10171;DHT22;5127;50.922;6.988;2024-02-21T14:30:16;15.90;69.10
10171;DHT22;5127;50.922;6.988;2024-02-21T14:32:44;15.90;69.10
10171;DHT22;5127;50.922;6.988;2024-02-21T14:35:11;15.90;68.90
10171;DHT22;5127;50.922;6.988;2024-02-21T14:37:39;15.90;68.80
10171;DHT22;5127;50.922;6.988;2024-02-21T14:40:08;15.90;69.00
10171;DHT22;5127;50.922;6.988;2024-02-21T14:42:35;15.90;68.50
10171;DHT22;5127;50.922;6.988;2024-02-21T14:45:03;15.90;69.00
10171;DHT22;5127;50.922;6.988;2024-02-21T14:47:31;15.80;68.70
10171;DHT22;5127;50.922;6.988;2024-02-21T14:49:58;15.80;69.80
10171;DHT22;5127;50.922;6.988;2024-02-21T14:52:26;15.80;69.00
10171;DHT22;5127;50.922;6.988;2024-02-21T14:54:55;15.80;68.80
10171;DHT22;5127;50.922;6.988;2024-02-21T14:57:24;15.80;68.90
10171;DHT22;5127;50.922;6.988;2024-02-21T14:59:52;15.80;68.40
10171;DHT22;5127;50.922;6.988;2024-02-21T15:02:22;15.80;68.70
10171;DHT22;5127;50.922;6.988;2024-02-21T15:04:49;15.80;68.40
10171;DHT22;5127;50.922;6.988;2024-02-21T15:07:17;15.80;68.50
10171;DHT22;5127;50.922;6.988;2024-02-21T15:09:45;15.80;68.50
10171;DHT22;5127;50.922;6.988;2024-02-21T15:12:13;15.70;68.70
10171;DHT22;5127;50.922;6.988;2024-02-21T15:14:41;15.70;68.70
10171;DHT22;5127;50.922;6.988;2024-02-21T15:17:10;15.70;68.80
10171;DHT22;5127;50.922;6.988;2024-02-21T15:19:37;15.70;68.70
10171;DHT22;5127;50.922;6.988;2024-02-21T15:22:09;15.70;69.10
10171;DHT22;5127;50.922;6.988;2024-02-21T15:24:38;15.70;69.00
10171;DHT22;5127;50.922;6.988;2024-02-21T15:27:06;15.70;69.00
10171;DHT22;5127;50.922;6.988;2024-02-21T15:29:34;15.60;68.80
10171;DHT22;5127;50.922;6.988;2024-02-21T15:32:03;15.60;68.60
10171;DHT22;5127;50.922;6.988;2024-02-21T15:34:31;15.60;68.60
10171;DHT22;5127;50.922;6.988;2024-02-21T15:36:58;15.50;69.10
10171;DHT22;5127;50.922;6.988;2024-02-21T15:39:25;15.50;68.90
10171;DHT22;5127;50.922;6.988;2024-02-21T15:41:54;15.50;68.90
10171;DHT22;5127;50.922;6.988;2024-02-21T15:44:21;15.50;68.00
10171;DHT22;5127;50.922;6.988;2024-02-21T15:46:48;15.50;67.80
10171;DHT22;5127;50.922;6.988;2024-02-21T15:49:18;15.40;67.60